sensor_id;sensor_type;location;lat;lon;timestamp;P1;durP1;ratioP1;P2;durP2;ratioP2
77430;SDS011;66498;48.564;19.272;2023-05-07T00:00:37;19.70;;;12.10;;
77430;SDS011;66498;48.564;19.272;2023-05-07T00:03:06;16.50;;;12.00;;
77430;SDS011;66498;48.564;19.272;2023-05-07T00:05:36;65.10;;;22.45;;
77430;SDS011;66498;48.564;19.272;2023-05-07T00:08:04;84.47;;;25.65;;
77430;SDS011;66498;48.564;19.272;2023-05-07T00:10:30;52.20;;;23.85;;
77430;SDS011;66498;48.564;19.272;2023-05-07T00:12:55;61.35;;;20.55;;
77430;SDS011;66498;48.564;19.272;2023-05-07T00:15:21;46.58;;;15.63;;
77430;SDS011;66498;48.564;19.272;2023-05-07T00:17:47;46.92;;;14.93;;
77430;SDS011;66498;48.564;19.272;2023-05-07T00:20:12;54.15;;;14.23;;
77430;SDS011;66498;48.564;19.272;2023-05-07T00:22:38;87.40;;;17.40;;
77430;SDS011;66498;48.564;19.272;2023-05-07T00:25:04;62.80;;;14.63;;
77430;SDS011;66498;48.564;19.272;2023-05-07T00:27:31;61.90;;;15.40;;
77430;SDS011;66498;48.564;19.272;2023-05-07T00:29:56;46.42;;;15.65;;
77430;SDS011;66498;48.564;19.272;2023-05-07T00:32:25;80.15;;;16.25;;
77430;SDS011;66498;48.564;19.272;2023-05-07T00:34:53;87.68;;;17.52;;
77430;SDS011;66498;48.564;19.272;2023-05-07T00:37:19;101.57;;;17.75;;
77430;SDS011;66498;48.564;19.272;2023-05-07T00:39:47;128.48;;;18.63;;
77430;SDS011;66498;48.564;19.272;2023-05-07T00:42:41;126.43;;;19.10;;
77430;SDS011;66498;48.564;19.272;2023-05-07T00:45:15;77.82;;;17.05;;
77430;SDS011;66498;48.564;19.272;2023-05-07T00:47:43;75.07;;;16.13;;
77430;SDS011;66498;48.564;19.272;2023-05-07T00:50:18;56.55;;;16.73;;
77430;SDS011;66498;48.564;19.272;2023-05-07T00:52:44;55.35;;;14.40;;
77430;SDS011;66498;48.564;19.272;2023-05-07T00:55:09;101.35;;;17.30;;
77430;SDS011;66498;48.564;19.272;2023-05-07T00:57:39;82.68;;;17.73;;
77430;SDS011;66498;48.564;19.272;2023-05-07T01:00:08;92.82;;;16.05;;
77430;SDS011;66498;48.564;19.272;2023-05-07T01:02:36;71.30;;;18.15;;
77430;SDS011;66498;48.564;19.272;2023-05-07T01:05:06;90.28;;;19.17;;
77430;SDS011;66498;48.564;19.272;2023-05-07T01:07:58;65.88;;;16.85;;
77430;SDS011;66498;48.564;19.272;2023-05-07T01:10:30;64.20;;;15.13;;
77430;SDS011;66498;48.564;19.272;2023-05-07T01:12:55;84.28;;;17.83;;
77430;SDS011;66498;48.564;19.272;2023-05-07T01:15:23;102.82;;;18.58;;
77430;SDS011;66498;48.564;19.272;2023-05-07T01:17:49;115.07;;;19.27;;
77430;SDS011;66498;48.564;19.272;2023-05-07T01:20:17;70.63;;;16.00;;
77430;SDS011;66498;48.564;19.272;2023-05-07T01:22:43;66.47;;;17.95;;
77430;SDS011;66498;48.564;19.272;2023-05-07T01:25:09;75.90;;;16.90;;
77430;SDS011;66498;48.564;19.272;2023-05-07T01:27:35;39.20;;;15.70;;
77430;SDS011;66498;48.564;19.272;2023-05-07T01:30:06;57.15;;;18.58;;
77430;SDS011;66498;48.564;19.272;2023-05-07T01:32:38;37.58;;;17.23;;
77430;SDS011;66498;48.564;19.272;2023-05-07T01:35:09;54.35;;;16.88;;
77430;SDS011;66498;48.564;19.272;2023-05-07T01:37:37;62.47;;;16.52;;
77430;SDS011;66498;48.564;19.272;2023-05-07T01:40:04;43.47;;;15.18;;
77430;SDS011;66498;48.564;19.272;2023-05-07T01:42:32;36.08;;;14.93;;
77430;SDS011;66498;48.564;19.272;2023-05-07T01:44:59;38.85;;;15.10;;
77430;SDS011;66498;48.564;19.272;2023-05-07T01:47:25;53.95;;;13.82;;
77430;SDS011;66498;48.564;19.272;2023-05-07T01:49:51;52.70;;;15.68;;
77430;SDS011;66498;48.564;19.272;2023-05-07T01:52:17;52.80;;;15.88;;
77430;SDS011;66498;48.564;19.272;2023-05-07T01:54:44;44.60;;;17.15;;
77430;SDS011;66498;48.564;19.272;2023-05-07T01:57:22;47.60;;;15.80;;
77430;SDS011;66498;48.564;19.272;2023-05-07T01:59:48;45.05;;;15.23;;
77430;SDS011;66498;48.564;19.272;2023-05-07T02:02:16;48.53;;;15.20;;
77430;SDS011;66498;48.564;19.272;2023-05-07T02:04:43;43.75;;;16.40;;
77430;SDS011;66498;48.564;19.272;2023-05-07T02:07:08;52.17;;;17.65;;
77430;SDS011;66498;48.564;19.272;2023-05-07T02:09:34;87.72;;;17.17;;
77430;SDS011;66498;48.564;19.272;2023-05-07T02:11:59;65.68;;;17.67;;
77430;SDS011;66498;48.564;19.272;2023-05-07T02:14:25;44.30;;;12.50;;
77430;SDS011;66498;48.564;19.272;2023-05-07T02:16:51;50.55;;;14.85;;
77430;SDS011;66498;48.564;19.272;2023-05-07T02:19:16;43.30;;;14.82;;
77430;SDS011;66498;48.564;19.272;2023-05-07T02:21:41;53.55;;;15.27;;
77430;SDS011;66498;48.564;19.272;2023-05-07T02:24:07;44.75;;;16.95;;
77430;SDS011;66498;48.564;19.272;2023-05-07T02:26:32;48.00;;;14.07;;
77430;SDS011;66498;48.564;19.272;2023-05-07T02:28:59;42.05;;;13.98;;
77430;SDS011;66498;48.564;19.272;2023-05-07T02:31:24;57.80;;;16.90;;
77430;SDS011;66498;48.564;19.272;2023-05-07T02:33:50;64.32;;;15.75;;
77430;SDS011;66498;48.564;19.272;2023-05-07T02:36:15;63.50;;;14.82;;
77430;SDS011;66498;48.564;19.272;2023-05-07T02:38:41;60.70;;;14.63;;
77430;SDS011;66498;48.564;19.272;2023-05-07T02:41:06;57.80;;;14.52;;
77430;SDS011;66498;48.564;19.272;2023-05-07T02:43:32;63.38;;;15.13;;
77430;SDS011;66498;48.564;19.272;2023-05-07T02:46:04;50.25;;;12.55;;
77430;SDS011;66498;48.564;19.272;2023-05-07T02:48:31;59.75;;;12.90;;
77430;SDS011;66498;48.564;19.272;2023-05-07T02:50:57;58.40;;;13.45;;
77430;SDS011;66498;48.564;19.272;2023-05-07T02:53:23;45.65;;;12.52;;
77430;SDS011;66498;48.564;19.272;2023-05-07T02:55:51;60.35;;;14.20;;
77430;SDS011;66498;48.564;19.272;2023-05-07T02:58:17;33.42;;;13.15;;
77430;SDS011;66498;48.564;19.272;2023-05-07T03:00:43;45.40;;;14.60;;
77430;SDS011;66498;48.564;19.272;2023-05-07T03:03:08;32.95;;;13.32;;
77430;SDS011;66498;48.564;19.272;2023-05-07T03:05:34;50.40;;;15.30;;
77430;SDS011;66498;48.564;19.272;2023-05-07T03:08:00;32.50;;;13.70;;
77430;SDS011;66498;48.564;19.272;2023-05-07T03:10:25;37.55;;;15.23;;
77430;SDS011;66498;48.564;19.272;2023-05-07T03:12:50;22.95;;;11.73;;
77430;SDS011;66498;48.564;19.272;2023-05-07T03:15:16;31.13;;;12.68;;
77430;SDS011;66498;48.564;19.272;2023-05-07T03:17:41;43.70;;;12.60;;
77430;SDS011;66498;48.564;19.272;2023-05-07T03:20:07;36.30;;;10.98;;
77430;SDS011;66498;48.564;19.272;2023-05-07T03:22:34;38.15;;;11.45;;
77430;SDS011;66498;48.564;19.272;2023-05-07T03:25:00;25.55;;;10.85;;
77430;SDS011;66498;48.564;19.272;2023-05-07T03:27:25;24.83;;;9.70;;
77430;SDS011;66498;48.564;19.272;2023-05-07T03:29:51;33.78;;;11.55;;
77430;SDS011;66498;48.564;19.272;2023-05-07T03:32:16;18.40;;;9.15;;
77430;SDS011;66498;48.564;19.272;2023-05-07T03:34:41;21.98;;;8.85;;
77430;SDS011;66498;48.564;19.272;2023-05-07T03:37:07;21.00;;;9.82;;
77430;SDS011;66498;48.564;19.272;2023-05-07T03:39:32;22.40;;;10.15;;
77430;SDS011;66498;48.564;19.272;2023-05-07T03:41:58;23.02;;;9.20;;
77430;SDS011;66498;48.564;19.272;2023-05-07T03:44:23;13.85;;;8.10;;
77430;SDS011;66498;48.564;19.272;2023-05-07T03:46:49;9.75;;;7.80;;
77430;SDS011;66498;48.564;19.272;2023-05-07T03:49:14;12.18;;;7.40;;
77430;SDS011;66498;48.564;19.272;2023-05-07T03:51:40;13.65;;;7.40;;
77430;SDS011;66498;48.564;19.272;2023-05-07T03:54:07;19.40;;;8.45;;
77430;SDS011;66498;48.564;19.272;2023-05-07T03:56:32;12.35;;;7.85;;
77430;SDS011;66498;48.564;19.272;2023-05-07T03:58:58;12.57;;;7.75;;
77430;SDS011;66498;48.564;19.272;2023-05-07T04:01:23;20.73;;;9.48;;
77430;SDS011;66498;48.564;19.272;2023-05-07T04:03:49;19.77;;;9.43;;
77430;SDS011;66498;48.564;19.272;2023-05-07T04:06:15;17.67;;;7.88;;
77430;SDS011;66498;48.564;19.272;2023-05-07T04:08:42;31.52;;;8.95;;
77430;SDS011;66498;48.564;19.272;2023-05-07T04:11:07;17.58;;;8.63;;
77430;SDS011;66498;48.564;19.272;2023-05-07T04:13:33;29.88;;;9.27;;
77430;SDS011;66498;48.564;19.272;2023-05-07T04:15:58;15.30;;;9.30;;
77430;SDS011;66498;48.564;19.272;2023-05-07T04:18:26;20.33;;;7.90;;
77430;SDS011;66498;48.564;19.272;2023-05-07T04:20:51;14.60;;;7.22;;
77430;SDS011;66498;48.564;19.272;2023-05-07T04:23:17;15.50;;;7.90;;
77430;SDS011;66498;48.564;19.272;2023-05-07T04:25:42;22.05;;;8.40;;
77430;SDS011;66498;48.564;19.272;2023-05-07T04:28:07;17.30;;;8.95;;
77430;SDS011;66498;48.564;19.272;2023-05-07T04:30:33;19.85;;;8.27;;
77430;SDS011;66498;48.564;19.272;2023-05-07T04:32:59;36.03;;;9.18;;
77430;SDS011;66498;48.564;19.272;2023-05-07T04:35:24;15.00;;;8.00;;
77430;SDS011;66498;48.564;19.272;2023-05-07T04:37:50;21.17;;;9.23;;
77430;SDS011;66498;48.564;19.272;2023-05-07T04:40:15;20.15;;;9.98;;
77430;SDS011;66498;48.564;19.272;2023-05-07T04:42:41;17.25;;;9.55;;
77430;SDS011;66498;48.564;19.272;2023-05-07T04:45:06;19.92;;;10.38;;
77430;SDS011;66498;48.564;19.272;2023-05-07T04:47:34;18.98;;;8.23;;
77430;SDS011;66498;48.564;19.272;2023-05-07T04:50:02;18.17;;;7.45;;
77430;SDS011;66498;48.564;19.272;2023-05-07T04:52:27;20.80;;;7.63;;
77430;SDS011;66498;48.564;19.272;2023-05-07T04:54:53;17.75;;;8.18;;
77430;SDS011;66498;48.564;19.272;2023-05-07T04:57:18;33.83;;;11.55;;
77430;SDS011;66498;48.564;19.272;2023-05-07T04:59:44;40.22;;;12.45;;
77430;SDS011;66498;48.564;19.272;2023-05-07T05:02:10;19.67;;;9.90;;
77430;SDS011;66498;48.564;19.272;2023-05-07T05:04:35;26.80;;;10.93;;
77430;SDS011;66498;48.564;19.272;2023-05-07T05:07:02;20.35;;;8.80;;
77430;SDS011;66498;48.564;19.272;2023-05-07T05:09:29;15.18;;;8.55;;
77430;SDS011;66498;48.564;19.272;2023-05-07T05:11:55;48.40;;;14.98;;
77430;SDS011;66498;48.564;19.272;2023-05-07T05:14:20;22.92;;;9.45;;
77430;SDS011;66498;48.564;19.272;2023-05-07T05:16:46;18.60;;;9.25;;
77430;SDS011;66498;48.564;19.272;2023-05-07T05:19:11;15.30;;;8.73;;
77430;SDS011;66498;48.564;19.272;2023-05-07T05:21:37;15.70;;;8.65;;
77430;SDS011;66498;48.564;19.272;2023-05-07T05:24:02;44.55;;;13.52;;
77430;SDS011;66498;48.564;19.272;2023-05-07T05:26:28;38.97;;;12.73;;
77430;SDS011;66498;48.564;19.272;2023-05-07T05:28:54;35.15;;;12.68;;
77430;SDS011;66498;48.564;19.272;2023-05-07T05:31:19;42.70;;;13.98;;
77430;SDS011;66498;48.564;19.272;2023-05-07T05:33:44;69.93;;;17.20;;
77430;SDS011;66498;48.564;19.272;2023-05-07T05:36:10;45.58;;;18.48;;
77430;SDS011;66498;48.564;19.272;2023-05-07T05:38:38;46.60;;;17.50;;
77430;SDS011;66498;48.564;19.272;2023-05-07T05:41:04;50.97;;;16.00;;
77430;SDS011;66498;48.564;19.272;2023-05-07T05:43:30;36.38;;;14.88;;
77430;SDS011;66498;48.564;19.272;2023-05-07T05:45:56;28.98;;;17.02;;
77430;SDS011;66498;48.564;19.272;2023-05-07T05:48:22;36.00;;;14.55;;
77430;SDS011;66498;48.564;19.272;2023-05-07T05:50:48;25.20;;;12.70;;
77430;SDS011;66498;48.564;19.272;2023-05-07T05:53:14;25.10;;;13.52;;
77430;SDS011;66498;48.564;19.272;2023-05-07T05:55:41;35.92;;;13.48;;
77430;SDS011;66498;48.564;19.272;2023-05-07T05:58:07;21.73;;;12.50;;
77430;SDS011;66498;48.564;19.272;2023-05-07T06:00:33;31.88;;;14.52;;
77430;SDS011;66498;48.564;19.272;2023-05-07T06:02:59;26.67;;;12.52;;
77430;SDS011;66498;48.564;19.272;2023-05-07T06:05:24;27.10;;;15.40;;
77430;SDS011;66498;48.564;19.272;2023-05-07T06:07:50;36.03;;;18.33;;
77430;SDS011;66498;48.564;19.272;2023-05-07T06:10:15;30.77;;;17.77;;
77430;SDS011;66498;48.564;19.272;2023-05-07T06:12:41;31.50;;;17.63;;
77430;SDS011;66498;48.564;19.272;2023-05-07T06:15:07;32.60;;;17.27;;
77430;SDS011;66498;48.564;19.272;2023-05-07T06:17:32;40.00;;;19.25;;
77430;SDS011;66498;48.564;19.272;2023-05-07T06:19:58;43.60;;;20.23;;
77430;SDS011;66498;48.564;19.272;2023-05-07T06:22:24;28.50;;;13.43;;
77430;SDS011;66498;48.564;19.272;2023-05-07T06:24:50;30.70;;;14.10;;
77430;SDS011;66498;48.564;19.272;2023-05-07T06:27:15;25.83;;;12.55;;
77430;SDS011;66498;48.564;19.272;2023-05-07T06:29:41;39.67;;;17.65;;
77430;SDS011;66498;48.564;19.272;2023-05-07T06:32:09;37.78;;;18.63;;
77430;SDS011;66498;48.564;19.272;2023-05-07T06:34:36;39.10;;;21.08;;
77430;SDS011;66498;48.564;19.272;2023-05-07T06:37:02;37.90;;;20.65;;
77430;SDS011;66498;48.564;19.272;2023-05-07T06:39:28;41.17;;;19.73;;
77430;SDS011;66498;48.564;19.272;2023-05-07T06:41:53;40.40;;;21.48;;
77430;SDS011;66498;48.564;19.272;2023-05-07T06:44:19;35.95;;;19.00;;
77430;SDS011;66498;48.564;19.272;2023-05-07T06:46:46;40.13;;;20.77;;
77430;SDS011;66498;48.564;19.272;2023-05-07T06:49:12;33.40;;;19.40;;
77430;SDS011;66498;48.564;19.272;2023-05-07T06:51:38;38.45;;;20.70;;
77430;SDS011;66498;48.564;19.272;2023-05-07T06:54:04;35.30;;;19.25;;
77430;SDS011;66498;48.564;19.272;2023-05-07T06:56:30;42.97;;;22.95;;
77430;SDS011;66498;48.564;19.272;2023-05-07T06:58:56;45.80;;;24.52;;
77430;SDS011;66498;48.564;19.272;2023-05-07T07:01:22;42.80;;;24.90;;
77430;SDS011;66498;48.564;19.272;2023-05-07T07:03:47;44.22;;;25.50;;
77430;SDS011;66498;48.564;19.272;2023-05-07T07:06:13;45.80;;;26.25;;
77430;SDS011;66498;48.564;19.272;2023-05-07T07:08:39;42.00;;;24.45;;
77430;SDS011;66498;48.564;19.272;2023-05-07T07:11:05;42.63;;;25.92;;
77430;SDS011;66498;48.564;19.272;2023-05-07T07:13:32;42.90;;;25.42;;
77430;SDS011;66498;48.564;19.272;2023-05-07T07:15:58;38.92;;;24.67;;
77430;SDS011;66498;48.564;19.272;2023-05-07T07:18:23;38.17;;;24.70;;
77430;SDS011;66498;48.564;19.272;2023-05-07T07:20:49;42.42;;;25.95;;
77430;SDS011;66498;48.564;19.272;2023-05-07T07:23:14;39.13;;;25.98;;
77430;SDS011;66498;48.564;19.272;2023-05-07T07:25:40;40.47;;;25.95;;
77430;SDS011;66498;48.564;19.272;2023-05-07T07:28:05;38.95;;;26.08;;
77430;SDS011;66498;48.564;19.272;2023-05-07T07:30:31;36.90;;;24.23;;
77430;SDS011;66498;48.564;19.272;2023-05-07T07:32:57;33.70;;;22.27;;
77430;SDS011;66498;48.564;19.272;2023-05-07T07:35:28;33.28;;;21.95;;
77430;SDS011;66498;48.564;19.272;2023-05-07T07:37:59;34.22;;;22.90;;
77430;SDS011;66498;48.564;19.272;2023-05-07T07:40:26;32.80;;;22.15;;
77430;SDS011;66498;48.564;19.272;2023-05-07T07:42:52;28.20;;;20.27;;
77430;SDS011;66498;48.564;19.272;2023-05-07T07:45:21;26.85;;;19.75;;
77430;SDS011;66498;48.564;19.272;2023-05-07T07:47:46;28.42;;;20.10;;
77430;SDS011;66498;48.564;19.272;2023-05-07T07:50:12;30.60;;;22.33;;
77430;SDS011;66498;48.564;19.272;2023-05-07T07:52:38;34.28;;;25.08;;
77430;SDS011;66498;48.564;19.272;2023-05-07T07:55:04;32.95;;;24.27;;
77430;SDS011;66498;48.564;19.272;2023-05-07T07:57:34;35.15;;;25.33;;
77430;SDS011;66498;48.564;19.272;2023-05-07T08:04:06;29.88;;;22.55;;
77430;SDS011;66498;48.564;19.272;2023-05-07T08:24:32;24.70;;;20.25;;
77430;SDS011;66498;48.564;19.272;2023-05-07T08:26:57;25.73;;;20.45;;
77430;SDS011;66498;48.564;19.272;2023-05-07T08:29:23;22.90;;;18.48;;
77430;SDS011;66498;48.564;19.272;2023-05-07T08:31:49;25.98;;;18.55;;
77430;SDS011;66498;48.564;19.272;2023-05-07T08:34:14;21.80;;;17.40;;
77430;SDS011;66498;48.564;19.272;2023-05-07T08:36:40;20.92;;;16.60;;
77430;SDS011;66498;48.564;19.272;2023-05-07T08:39:06;22.25;;;16.65;;
77430;SDS011;66498;48.564;19.272;2023-05-07T08:41:32;18.75;;;15.07;;
77430;SDS011;66498;48.564;19.272;2023-05-07T08:43:58;18.80;;;15.65;;
77430;SDS011;66498;48.564;19.272;2023-05-07T08:46:27;21.63;;;16.92;;
77430;SDS011;66498;48.564;19.272;2023-05-07T08:48:56;18.98;;;16.10;;
77430;SDS011;66498;48.564;19.272;2023-05-07T08:51:22;17.75;;;14.02;;
77430;SDS011;66498;48.564;19.272;2023-05-07T08:53:48;17.08;;;14.13;;
77430;SDS011;66498;48.564;19.272;2023-05-07T08:56:15;12.75;;;10.93;;
77430;SDS011;66498;48.564;19.272;2023-05-07T08:58:45;11.73;;;10.25;;
77430;SDS011;66498;48.564;19.272;2023-05-07T09:01:15;15.13;;;12.63;;
77430;SDS011;66498;48.564;19.272;2023-05-07T09:03:42;12.05;;;10.50;;
77430;SDS011;66498;48.564;19.272;2023-05-07T09:06:10;15.27;;;12.13;;
77430;SDS011;66498;48.564;19.272;2023-05-07T09:08:36;14.60;;;11.07;;
77430;SDS011;66498;48.564;19.272;2023-05-07T09:11:01;13.38;;;11.98;;
77430;SDS011;66498;48.564;19.272;2023-05-07T09:13:28;12.35;;;10.35;;
77430;SDS011;66498;48.564;19.272;2023-05-07T09:15:54;12.57;;;9.82;;
77430;SDS011;66498;48.564;19.272;2023-05-07T09:18:26;11.77;;;10.02;;
77430;SDS011;66498;48.564;19.272;2023-05-07T09:21:17;12.20;;;9.90;;
77430;SDS011;66498;48.564;19.272;2023-05-07T09:23:43;12.90;;;9.40;;
77430;SDS011;66498;48.564;19.272;2023-05-07T09:26:09;9.20;;;6.55;;
77430;SDS011;66498;48.564;19.272;2023-05-07T09:28:39;6.60;;;5.43;;
77430;SDS011;66498;48.564;19.272;2023-05-07T09:31:06;7.47;;;6.07;;
77430;SDS011;66498;48.564;19.272;2023-05-07T09:33:36;7.13;;;5.50;;
77430;SDS011;66498;48.564;19.272;2023-05-07T09:36:07;7.72;;;5.93;;
77430;SDS011;66498;48.564;19.272;2023-05-07T09:38:34;6.60;;;5.25;;
77430;SDS011;66498;48.564;19.272;2023-05-07T09:41:07;7.03;;;5.25;;
77430;SDS011;66498;48.564;19.272;2023-05-07T09:44:12;8.00;;;6.35;;
77430;SDS011;66498;48.564;19.272;2023-05-07T09:46:42;8.90;;;5.93;;
77430;SDS011;66498;48.564;19.272;2023-05-07T09:49:15;7.60;;;6.40;;
77430;SDS011;66498;48.564;19.272;2023-05-07T09:51:49;7.78;;;6.93;;
77430;SDS011;66498;48.564;19.272;2023-05-07T09:54:17;11.85;;;7.35;;
77430;SDS011;66498;48.564;19.272;2023-05-07T09:56:44;9.00;;;7.30;;
77430;SDS011;66498;48.564;19.272;2023-05-07T09:59:14;9.45;;;7.45;;
77430;SDS011;66498;48.564;19.272;2023-05-07T10:01:43;9.27;;;7.32;;
77430;SDS011;66498;48.564;19.272;2023-05-07T10:04:10;8.45;;;7.03;;
77430;SDS011;66498;48.564;19.272;2023-05-07T10:06:36;10.00;;;7.53;;
77430;SDS011;66498;48.564;19.272;2023-05-07T10:09:06;8.90;;;7.22;;
77430;SDS011;66498;48.564;19.272;2023-05-07T10:11:36;8.20;;;7.35;;
77430;SDS011;66498;48.564;19.272;2023-05-07T10:14:02;6.95;;;4.90;;
77430;SDS011;66498;48.564;19.272;2023-05-07T10:16:31;7.82;;;3.70;;
77430;SDS011;66498;48.564;19.272;2023-05-07T10:19:01;5.60;;;3.10;;
77430;SDS011;66498;48.564;19.272;2023-05-07T10:21:31;3.30;;;2.70;;
77430;SDS011;66498;48.564;19.272;2023-05-07T10:24:05;6.28;;;3.03;;
77430;SDS011;66498;48.564;19.272;2023-05-07T10:26:42;4.22;;;3.13;;
77430;SDS011;66498;48.564;19.272;2023-05-07T10:29:17;4.43;;;2.55;;
77430;SDS011;66498;48.564;19.272;2023-05-07T10:32:42;3.80;;;2.60;;
77430;SDS011;66498;48.564;19.272;2023-05-07T10:35:14;4.30;;;2.90;;
77430;SDS011;66498;48.564;19.272;2023-05-07T10:37:52;2.85;;;2.15;;
77430;SDS011;66498;48.564;19.272;2023-05-07T10:40:19;5.80;;;2.78;;
77430;SDS011;66498;48.564;19.272;2023-05-07T10:42:59;3.67;;;3.05;;
77430;SDS011;66498;48.564;19.272;2023-05-07T10:45:26;4.38;;;2.88;;
77430;SDS011;66498;48.564;19.272;2023-05-07T10:50:41;6.78;;;3.00;;
77430;SDS011;66498;48.564;19.272;2023-05-07T10:55:50;5.22;;;3.20;;
77430;SDS011;66498;48.564;19.272;2023-05-07T10:58:29;3.95;;;3.17;;
77430;SDS011;66498;48.564;19.272;2023-05-07T11:01:00;4.28;;;2.78;;
77430;SDS011;66498;48.564;19.272;2023-05-07T11:03:27;4.03;;;3.15;;
77430;SDS011;66498;48.564;19.272;2023-05-07T11:06:13;4.47;;;2.45;;
77430;SDS011;66498;48.564;19.272;2023-05-07T11:08:53;7.05;;;3.55;;
77430;SDS011;66498;48.564;19.272;2023-05-07T11:11:19;3.85;;;2.58;;
77430;SDS011;66498;48.564;19.272;2023-05-07T11:18:49;4.43;;;3.27;;
77430;SDS011;66498;48.564;19.272;2023-05-07T11:21:33;4.13;;;3.40;;
77430;SDS011;66498;48.564;19.272;2023-05-07T11:24:05;3.50;;;2.55;;
77430;SDS011;66498;48.564;19.272;2023-05-07T11:29:27;4.28;;;3.53;;
77430;SDS011;66498;48.564;19.272;2023-05-07T11:31:54;3.80;;;2.90;;
77430;SDS011;66498;48.564;19.272;2023-05-07T11:34:23;4.80;;;3.35;;
77430;SDS011;66498;48.564;19.272;2023-05-07T11:36:51;8.85;;;3.45;;
77430;SDS011;66498;48.564;19.272;2023-05-07T11:39:31;8.10;;;2.72;;
77430;SDS011;66498;48.564;19.272;2023-05-07T11:41:59;4.78;;;2.97;;
77430;SDS011;66498;48.564;19.272;2023-05-07T11:44:45;4.13;;;3.40;;
77430;SDS011;66498;48.564;19.272;2023-05-07T11:51:12;8.77;;;3.58;;
77430;SDS011;66498;48.564;19.272;2023-05-07T11:56:55;4.40;;;3.50;;
77430;SDS011;66498;48.564;19.272;2023-05-07T12:03:40;4.78;;;3.40;;
77430;SDS011;66498;48.564;19.272;2023-05-07T12:24:05;6.47;;;3.50;;
77430;SDS011;66498;48.564;19.272;2023-05-07T12:26:43;6.70;;;3.50;;
77430;SDS011;66498;48.564;19.272;2023-05-07T12:33:26;4.72;;;2.90;;
77430;SDS011;66498;48.564;19.272;2023-05-07T12:35:54;3.88;;;3.05;;
77430;SDS011;66498;48.564;19.272;2023-05-07T12:38:21;3.45;;;3.10;;
77430;SDS011;66498;48.564;19.272;2023-05-07T12:40:48;5.80;;;3.83;;
77430;SDS011;66498;48.564;19.272;2023-05-07T12:43:26;7.03;;;2.90;;
77430;SDS011;66498;48.564;19.272;2023-05-07T12:45:57;5.10;;;3.20;;
77430;SDS011;66498;48.564;19.272;2023-05-07T12:48:25;6.15;;;3.45;;
77430;SDS011;66498;48.564;19.272;2023-05-07T12:50:58;4.85;;;3.22;;
77430;SDS011;66498;48.564;19.272;2023-05-07T12:53:27;5.13;;;2.85;;
77430;SDS011;66498;48.564;19.272;2023-05-07T12:55:57;4.03;;;3.05;;
77430;SDS011;66498;48.564;19.272;2023-05-07T12:58:27;4.32;;;3.20;;
77430;SDS011;66498;48.564;19.272;2023-05-07T13:00:55;3.85;;;2.80;;
77430;SDS011;66498;48.564;19.272;2023-05-07T13:03:33;3.60;;;3.00;;
77430;SDS011;66498;48.564;19.272;2023-05-07T13:06:04;4.28;;;3.03;;
77430;SDS011;66498;48.564;19.272;2023-05-07T13:08:35;4.22;;;2.88;;
77430;SDS011;66498;48.564;19.272;2023-05-07T13:11:08;4.60;;;2.90;;
77430;SDS011;66498;48.564;19.272;2023-05-07T13:13:36;3.00;;;2.42;;
77430;SDS011;66498;48.564;19.272;2023-05-07T13:16:04;4.35;;;3.30;;
77430;SDS011;66498;48.564;19.272;2023-05-07T13:18:31;4.63;;;3.30;;
77430;SDS011;66498;48.564;19.272;2023-05-07T13:20:58;3.63;;;2.88;;
77430;SDS011;66498;48.564;19.272;2023-05-07T13:23:24;3.47;;;2.95;;
77430;SDS011;66498;48.564;19.272;2023-05-07T13:25:50;3.78;;;3.20;;
77430;SDS011;66498;48.564;19.272;2023-05-07T13:28:15;3.80;;;2.90;;
77430;SDS011;66498;48.564;19.272;2023-05-07T13:30:41;3.42;;;3.00;;
77430;SDS011;66498;48.564;19.272;2023-05-07T13:33:07;4.60;;;2.97;;
77430;SDS011;66498;48.564;19.272;2023-05-07T13:35:33;3.10;;;2.30;;
77430;SDS011;66498;48.564;19.272;2023-05-07T13:37:59;4.30;;;3.25;;
77430;SDS011;66498;48.564;19.272;2023-05-07T13:40:25;3.55;;;3.17;;
77430;SDS011;66498;48.564;19.272;2023-05-07T13:42:50;4.13;;;2.85;;
77430;SDS011;66498;48.564;19.272;2023-05-07T13:45:17;4.45;;;3.40;;
77430;SDS011;66498;48.564;19.272;2023-05-07T13:47:43;4.50;;;3.42;;
77430;SDS011;66498;48.564;19.272;2023-05-07T13:50:09;3.47;;;2.25;;
77430;SDS011;66498;48.564;19.272;2023-05-07T13:52:36;6.47;;;2.20;;
77430;SDS011;66498;48.564;19.272;2023-05-07T13:55:03;4.15;;;3.17;;
77430;SDS011;66498;48.564;19.272;2023-05-07T13:57:29;4.10;;;3.45;;
77430;SDS011;66498;48.564;19.272;2023-05-07T13:59:54;3.53;;;2.90;;
77430;SDS011;66498;48.564;19.272;2023-05-07T14:02:20;3.58;;;2.83;;
77430;SDS011;66498;48.564;19.272;2023-05-07T14:04:45;4.47;;;3.40;;
77430;SDS011;66498;48.564;19.272;2023-05-07T14:07:11;4.60;;;3.80;;
77430;SDS011;66498;48.564;19.272;2023-05-07T14:09:36;4.47;;;3.13;;
77430;SDS011;66498;48.564;19.272;2023-05-07T14:12:02;4.05;;;3.33;;
77430;SDS011;66498;48.564;19.272;2023-05-07T14:14:28;4.35;;;3.67;;
77430;SDS011;66498;48.564;19.272;2023-05-07T14:16:53;3.38;;;2.65;;
77430;SDS011;66498;48.564;19.272;2023-05-07T14:19:19;4.72;;;3.22;;
77430;SDS011;66498;48.564;19.272;2023-05-07T14:21:44;3.83;;;3.20;;
77430;SDS011;66498;48.564;19.272;2023-05-07T14:24:10;4.82;;;3.83;;
77430;SDS011;66498;48.564;19.272;2023-05-07T14:26:35;5.50;;;3.38;;
77430;SDS011;66498;48.564;19.272;2023-05-07T14:29:01;4.28;;;3.10;;
77430;SDS011;66498;48.564;19.272;2023-05-07T14:31:27;5.30;;;2.90;;
77430;SDS011;66498;48.564;19.272;2023-05-07T14:33:53;4.95;;;3.40;;
77430;SDS011;66498;48.564;19.272;2023-05-07T14:36:18;6.35;;;3.88;;
77430;SDS011;66498;48.564;19.272;2023-05-07T14:38:46;4.53;;;2.38;;
77430;SDS011;66498;48.564;19.272;2023-05-07T14:41:12;5.30;;;3.22;;
77430;SDS011;66498;48.564;19.272;2023-05-07T14:43:37;6.47;;;4.45;;
77430;SDS011;66498;48.564;19.272;2023-05-07T14:46:03;6.68;;;4.57;;
77430;SDS011;66498;48.564;19.272;2023-05-07T14:48:29;5.35;;;4.35;;
77430;SDS011;66498;48.564;19.272;2023-05-07T14:50:55;7.07;;;4.47;;
77430;SDS011;66498;48.564;19.272;2023-05-07T14:53:21;6.22;;;4.70;;
77430;SDS011;66498;48.564;19.272;2023-05-07T14:55:47;6.80;;;4.75;;
77430;SDS011;66498;48.564;19.272;2023-05-07T14:58:13;5.38;;;4.22;;
77430;SDS011;66498;48.564;19.272;2023-05-07T15:00:39;6.15;;;4.38;;
77430;SDS011;66498;48.564;19.272;2023-05-07T15:03:09;3.95;;;3.50;;
77430;SDS011;66498;48.564;19.272;2023-05-07T15:05:36;5.80;;;4.93;;
77430;SDS011;66498;48.564;19.272;2023-05-07T15:08:02;6.72;;;5.22;;
77430;SDS011;66498;48.564;19.272;2023-05-07T15:10:28;6.88;;;4.53;;
77430;SDS011;66498;48.564;19.272;2023-05-07T15:12:53;5.28;;;4.22;;
77430;SDS011;66498;48.564;19.272;2023-05-07T15:15:19;6.32;;;4.93;;
77430;SDS011;66498;48.564;19.272;2023-05-07T15:17:45;7.28;;;5.35;;
77430;SDS011;66498;48.564;19.272;2023-05-07T15:20:11;6.25;;;4.35;;
77430;SDS011;66498;48.564;19.272;2023-05-07T15:22:36;6.80;;;5.13;;
77430;SDS011;66498;48.564;19.272;2023-05-07T15:25:02;6.80;;;4.97;;
77430;SDS011;66498;48.564;19.272;2023-05-07T15:27:29;6.28;;;4.82;;
77430;SDS011;66498;48.564;19.272;2023-05-07T15:29:56;5.75;;;3.78;;